Time;durP1;ratioP1;P1;durP2;ratioP2;P2;SDS_P1;SDS_P2;PMS_P1;PMS_P2;Temp;Humidity;BMP_temperature;BMP_pressure;BME280_temperature;BME280_humidity;BME280_pressure;Samples;Min_cycle;Max_cycle;Signal;HPM_P1;HPM_P2
2023/03/06 00:00:37;;;;;;;3.40;3.10;;;-3.30;99.90;;;;;;5052828;28;20183;-82
2023/03/06 00:03:03;;;;;;;4.47;3.03;;;-4.40;99.90;;;;;;5052709;28;20246;-85
2023/03/06 00:05:29;;;;;;;3.37;3.17;;;-6.10;99.90;;;;;;5052421;28;20594;-81
2023/03/06 00:07:55;;;;;;;6.30;4.43;;;-4.50;99.90;;;;;;5034551;28;20186;-81
2023/03/06 00:10:26;;;;;;;5.27;3.70;;;-4.50;99.90;;;;;;5051923;28;20245;-81
2023/03/06 00:12:54;;;;;;;8.57;4.23;;;-3.90;99.90;;;;;;5034324;28;20689;-81
2023/03/06 00:15:20;;;;;;;2.60;2.50;;;-3.20;99.90;;;;;;5034260;28;20206;-81
2023/03/06 00:17:46;;;;;;;3.83;2.83;;;-4.10;99.90;;;;;;5052456;28;20193;-82
2023/03/06 00:20:12;;;;;;;6.03;4.07;;;-4.60;99.90;;;;;;5051935;28;20314;-81
2023/03/06 00:22:39;;;;;;;2.37;2.27;;;-4.60;99.90;;;;;;5052260;28;20189;-81
2023/03/06 00:25:06;;;;;;;4.93;3.17;;;-3.30;99.90;;;;;;5017965;28;20188;-81
2023/03/06 00:27:32;;;;;;;5.57;2.30;;;-5.90;99.90;;;;;;5052042;28;20181;-81
2023/03/06 00:29:59;;;;;;;4.90;3.90;;;-4.70;99.90;;;;;;5038075;28;20184;-82
2023/03/06 00:32:25;;;;;;;6.70;3.73;;;-4.70;99.90;;;;;;5055838;28;20177;-82
2023/03/06 00:34:52;;;;;;;6.47;4.13;;;-4.70;99.90;;;;;;5055878;28;20203;-82
2023/03/06 00:37:19;;;;;;;4.83;4.13;;;-4.70;99.90;;;;;;5037861;28;20267;-82
2023/03/06 00:39:45;;;;;;;4.80;4.10;;;-4.70;99.90;;;;;;5056046;28;20663;-81
2023/03/06 00:42:11;;;;;;;4.27;3.70;;;-4.80;99.90;;;;;;5038480;28;20176;-81
2023/03/06 00:44:37;;;;;;;3.67;3.23;;;-4.80;99.90;;;;;;5056311;28;20207;-81
2023/03/06 00:47:03;;;;;;;5.33;3.53;;;-4.80;99.90;;;;;;5055998;28;20500;-81
2023/03/06 00:49:28;;;;;;;3.97;3.67;;;-4.80;99.90;;;;;;5055259;28;20806;-82
2023/03/06 00:51:54;;;;;;;4.03;3.80;;;-4.80;99.90;;;;;;5037734;28;20592;-81
2023/03/06 00:54:20;;;;;;;8.90;3.87;;;-4.80;99.90;;;;;;5055432;28;20183;-82
2023/03/06 00:56:45;;;;;;;11.97;3.97;;;-4.20;99.90;;;;;;5037786;28;20195;-82
2023/03/06 00:59:11;;;;;;;3.47;3.27;;;-4.90;99.90;;;;;;5055064;28;20181;-82
2023/03/06 01:01:37;;;;;;;2.90;2.80;;;-4.90;99.90;;;;;;5055383;28;20539;-81
2023/03/06 01:04:03;;;;;;;4.53;2.73;;;-4.30;99.90;;;;;;5055576;28;20698;-82
2023/03/06 01:06:29;;;;;;;3.83;3.33;;;-5.00;99.90;;;;;;5037157;28;20225;-82
2023/03/06 01:08:55;;;;;;;3.50;3.30;;;-5.00;99.90;;;;;;5055109;28;20188;-81
2023/03/06 01:11:21;;;;;;;5.13;4.57;;;-3.90;99.90;;;;;;5054794;28;20223;-81
2023/03/06 01:13:47;;;;;;;3.57;3.27;;;-5.10;99.90;;;;;;5054924;28;20180;-81
2023/03/06 01:16:15;;;;;;;9.67;5.20;;;-4.30;99.90;;;;;;5054600;28;20231;-83
2023/03/06 01:18:41;;;;;;;5.33;4.03;;;-5.20;99.90;;;;;;5054979;28;20186;-81
2023/03/06 01:21:07;;;;;;;5.27;3.67;;;-5.10;99.90;;;;;;5055166;28;20206;-81
2023/03/06 01:23:33;;;;;;;15.90;5.13;;;-5.10;99.90;;;;;;5036843;28;20553;-82
2023/03/06 01:26:00;;;;;;;9.57;3.57;;;-4.60;99.90;;;;;;5054775;28;20320;-81
2023/03/06 01:28:25;;;;;;;7.23;4.57;;;-4.60;99.90;;;;;;5054745;28;20258;-81
2023/03/06 01:30:51;;;;;;;3.33;3.13;;;-4.80;99.90;;;;;;5020511;28;20279;-81
2023/03/06 01:33:17;;;;;;;7.57;5.60;;;-5.30;99.90;;;;;;5054707;28;20180;-81
2023/03/06 01:35:42;;;;;;;10.03;5.17;;;-4.60;99.90;;;;;;5054665;28;20590;-81
2023/03/06 01:38:08;;;;;;;10.00;5.43;;;-5.20;99.90;;;;;;5036615;28;20620;-82
2023/03/06 01:40:35;;;;;;;5.60;5.10;;;-3.60;99.90;;;;;;5053709;28;20184;-81
2023/03/06 01:43:23;;;;;;;4.97;3.83;;;-5.20;99.90;;;;;;5054566;28;20172;-81
2023/03/06 01:45:48;;;;;;;8.13;4.80;;;-5.30;99.90;;;;;;5037295;28;20321;-81
2023/03/06 01:48:16;;;;;;;3.57;3.33;;;-5.30;99.90;;;;;;5054811;28;20207;-82
2023/03/06 01:50:42;;;;;;;5.07;4.50;;;-4.10;99.90;;;;;;5054342;28;20186;-82
2023/03/06 01:53:08;;;;;;;4.13;3.20;;;-4.80;99.90;;;;;;5054566;28;20238;-81
2023/03/06 01:55:36;;;;;;;3.90;3.67;;;-5.30;99.90;;;;;;5036268;28;20208;-81
2023/03/06 01:58:10;;;;;;;7.63;4.00;;;-5.30;99.90;;;;;;5054546;28;20199;-80
2023/03/06 02:00:36;;;;;;;2.23;2.13;;;-5.30;99.90;;;;;;5053925;28;20251;-80
2023/03/06 02:03:28;;;;;;;7.20;6.00;;;-5.00;99.90;;;;;;5036218;28;20688;-80
2023/03/06 02:05:54;;;;;;;5.07;3.80;;;-5.30;99.90;;;;;;5017080;28;20202;-80
2023/03/06 02:08:22;;;;;;;3.93;3.63;;;-4.50;99.90;;;;;;5036037;28;20675;-80
2023/03/06 02:10:55;;;;;;;3.33;3.13;;;-3.60;99.90;;;;;;5053781;28;20168;-80
2023/03/06 02:13:20;;;;;;;20.00;5.97;;;-4.90;99.90;;;;;;5053975;28;20172;-81
2023/03/06 02:15:46;;;;;;;5.83;5.33;;;-4.70;99.90;;;;;;5053803;28;20218;-81
2023/03/06 02:18:12;;;;;;;6.13;5.63;;;-5.30;99.90;;;;;;5054003;28;20648;-80
2023/03/06 02:21:09;;;;;;;12.17;6.53;;;-3.90;99.90;;;;;;5019550;28;20216;-80
2023/03/06 02:23:52;;;;;;;15.87;9.73;;;-5.60;99.90;;;;;;5034500;28;20223;-81
2023/03/06 02:26:19;;;;;;;17.80;6.53;;;-5.70;99.90;;;;;;5053550;28;20179;-80
2023/03/06 02:28:45;;;;;;;11.87;6.83;;;-4.60;99.90;;;;;;5036165;28;20199;-81
2023/03/06 02:31:28;;;;;;;7.17;5.30;;;-4.90;99.90;;;;;;5036531;28;20265;-80
2023/03/06 02:34:28;;;;;;;14.80;7.40;;;-5.90;99.90;;;;;;5054619;28;20183;-81
2023/03/06 02:37:03;;;;;;;17.73;5.13;;;-6.00;99.90;;;;;;5053776;28;20196;-81
2023/03/06 02:39:32;;;;;;;11.00;6.67;;;-5.00;99.90;;;;;;5053382;28;20183;-81
2023/03/06 02:41:58;;;;;;;15.43;8.87;;;-6.20;99.90;;;;;;5053600;28;20203;-80
2023/03/06 02:44:26;;;;;;;15.20;6.70;;;-6.10;99.90;;;;;;5035245;28;20629;-82
2023/03/06 02:46:52;;;;;;;20.57;9.13;;;-6.40;99.90;;;;;;5053347;28;20273;-80
2023/03/06 02:49:17;;;;;;;29.27;9.23;;;-5.30;99.90;;;;;;5035254;28;20667;-81
2023/03/06 02:51:43;;;;;;;11.23;6.97;;;-6.50;99.90;;;;;;5052442;28;20180;-80
2023/03/06 02:54:09;;;;;;;13.73;8.00;;;-6.50;99.90;;;;;;5019217;28;20193;-80
2023/03/06 02:56:35;;;;;;;17.60;5.23;;;-6.40;99.90;;;;;;5053043;28;20265;-81
2023/03/06 02:59:01;;;;;;;16.43;6.87;;;-4.60;99.90;;;;;;5053177;28;20633;-80
2023/03/06 03:01:27;;;;;;;7.10;6.37;;;-6.50;99.90;;;;;;5035650;28;20253;-81
2023/03/06 03:03:52;;;;;;;9.93;6.03;;;-6.50;99.90;;;;;;5035263;28;20666;-80
2023/03/06 03:06:18;;;;;;;10.00;6.90;;;-6.50;99.90;;;;;;5052898;28;20230;-80
2023/03/06 03:08:44;;;;;;;8.60;7.73;;;-4.70;99.90;;;;;;5035174;28;20183;-81
2023/03/06 03:11:11;;;;;;;6.47;5.47;;;-6.60;99.90;;;;;;5035127;28;20231;-80
2023/03/06 03:13:36;;;;;;;4.57;4.20;;;-6.60;99.90;;;;;;5053146;28;20621;-80
2023/03/06 03:16:09;;;;;;;7.80;4.73;;;-6.20;99.90;;;;;;5034900;28;20279;-81
2023/03/06 03:18:35;;;;;;;14.20;5.83;;;-6.70;99.90;;;;;;5052618;28;20264;-81
2023/03/06 03:21:05;;;;;;;4.07;3.77;;;-6.80;99.90;;;;;;5034765;28;20273;-80
2023/03/06 03:23:31;;;;;;;19.33;7.93;;;-6.90;99.90;;;;;;5034737;28;20215;-81
2023/03/06 03:26:09;;;;;;;6.77;5.77;;;-6.60;99.90;;;;;;5052987;28;20675;-80
2023/03/06 03:28:34;;;;;;;6.70;5.33;;;-7.00;99.90;;;;;;5052883;28;20179;-81
2023/03/06 03:31:05;;;;;;;6.03;5.50;;;-6.10;99.90;;;;;;5053213;28;20242;-81
2023/03/06 03:33:31;;;;;;;13.03;6.60;;;-7.00;99.90;;;;;;5053312;28;20217;-82
2023/03/06 03:35:57;;;;;;;4.47;4.13;;;-7.00;99.90;;;;;;5035222;28;20215;-80
2023/03/06 03:38:23;;;;;;;7.73;7.03;;;-7.10;99.90;;;;;;5035464;28;20180;-80
2023/03/06 03:40:49;;;;;;;6.47;5.90;;;-7.10;99.90;;;;;;5034825;28;20241;-80
2023/03/06 03:43:14;;;;;;;13.13;6.30;;;-7.10;99.90;;;;;;5052763;28;20198;-80
2023/03/06 03:45:40;;;;;;;8.67;5.50;;;-7.10;99.90;;;;;;5052488;28;20193;-81
2023/03/06 03:48:06;;;;;;;10.67;8.27;;;-5.70;99.90;;;;;;5053023;28;20187;-80
2023/03/06 03:50:32;;;;;;;19.53;7.00;;;-7.10;99.90;;;;;;5053087;28;20192;-80
2023/03/06 03:52:58;;;;;;;23.90;8.70;;;-7.00;99.90;;;;;;5052801;28;20179;-80
2023/03/06 03:55:24;;;;;;;5.80;5.27;;;-6.20;99.90;;;;;;5052751;28;20201;-80
2023/03/06 03:57:49;;;;;;;4.43;4.03;;;-6.20;99.90;;;;;;5052567;28;20518;-81
2023/03/06 04:00:16;;;;;;;6.30;4.70;;;-6.10;99.90;;;;;;5052681;28;20556;-81
2023/03/06 04:02:43;;;;;;;7.67;6.97;;;-6.90;99.90;;;;;;5052538;28;20182;-81
2023/03/06 04:05:11;;;;;;;9.53;5.40;;;-5.60;99.90;;;;;;5056803;28;20184;-81
2023/03/06 04:07:37;;;;;;;6.87;6.13;;;-5.50;99.90;;;;;;5038540;28;20535;-80
2023/03/06 04:10:04;;;;;;;8.90;7.07;;;-6.90;99.90;;;;;;5056561;28;20189;-80
2023/03/06 04:12:29;;;;;;;10.23;5.83;;;-6.90;99.90;;;;;;5035493;28;20585;-81
2023/03/06 04:14:55;;;;;;;6.93;5.57;;;-6.90;99.90;;;;;;5035226;28;20685;-80
2023/03/06 04:17:20;;;;;;;11.10;7.30;;;-6.90;99.90;;;;;;5035465;28;20184;-80
2023/03/06 04:19:46;;;;;;;7.80;6.30;;;-6.30;99.90;;;;;;5036102;28;20547;-81
2023/03/06 04:22:12;;;;;;;7.17;6.50;;;-6.90;99.90;;;;;;5035403;28;20703;-80
2023/03/06 04:24:37;;;;;;;7.70;6.50;;;-6.80;99.90;;;;;;5018370;28;20224;-80
2023/03/06 04:27:03;;;;;;;8.20;6.67;;;-5.40;99.90;;;;;;5036209;28;20679;-80
2023/03/06 04:29:29;;;;;;;7.23;5.63;;;-6.90;99.90;;;;;;5035549;28;20258;-81
2023/03/06 04:31:55;;;;;;;14.33;8.27;;;-6.10;99.90;;;;;;5036327;28;20289;-80
2023/03/06 04:34:20;;;;;;;9.47;5.17;;;-5.40;99.90;;;;;;5036141;28;20174;-81
2023/03/06 04:36:46;;;;;;;6.97;5.50;;;-6.80;99.90;;;;;;5034887;28;20233;-81
2023/03/06 04:39:13;;;;;;;5.63;4.93;;;-6.80;99.90;;;;;;5026830;28;20217;-80
2023/03/06 04:41:39;;;;;;;8.07;7.40;;;-4.90;99.90;;;;;;5015117;28;20248;-81
2023/03/06 04:44:06;;;;;;;6.30;5.13;;;-6.80;99.90;;;;;;5016229;28;20208;-81
2023/03/06 04:46:32;;;;;;;11.63;6.03;;;-5.40;99.90;;;;;;5016328;28;20649;-80
2023/03/06 04:48:59;;;;;;;12.37;7.80;;;-6.70;99.90;;;;;;5016128;28;20256;-80
2023/03/06 04:51:24;;;;;;;15.87;9.70;;;-6.80;99.90;;;;;;5015958;28;20176;-81
2023/03/06 04:53:51;;;;;;;21.97;10.30;;;-5.40;99.90;;;;;;5017396;28;20231;-81
2023/03/06 04:56:17;;;;;;;13.60;10.87;;;-5.70;99.90;;;;;;5022273;28;20220;-80
2023/03/06 04:58:43;;;;;;;31.50;14.53;;;-6.80;99.90;;;;;;5018461;28;20664;-80
2023/03/06 05:01:09;;;;;;;13.80;10.23;;;-5.00;99.90;;;;;;5015903;28;20179;-80
2023/03/06 05:03:35;;;;;;;28.20;15.93;;;-7.00;99.90;;;;;;5015665;28;20178;-81
2023/03/06 05:06:01;;;;;;;26.53;15.77;;;-6.80;99.90;;;;;;5014287;28;20227;-81
2023/03/06 05:08:27;;;;;;;31.00;20.77;;;-6.90;99.90;;;;;;5015581;28;20186;-81
2023/03/06 05:10:56;;;;;;;29.77;18.13;;;-6.80;99.90;;;;;;5018929;28;20209;-81
2023/03/06 05:13:21;;;;;;;30.93;18.53;;;-6.80;99.90;;;;;;5044075;28;20201;-80
2023/03/06 05:15:47;;;;;;;25.67;14.77;;;-5.70;99.90;;;;;;5018200;28;20256;-80
2023/03/06 05:18:13;;;;;;;22.07;14.13;;;-4.80;99.90;;;;;;5020845;28;20209;-80
2023/03/06 05:20:38;;;;;;;50.87;19.63;;;-6.50;99.90;;;;;;5037717;28;20179;-81
2023/03/06 05:23:04;;;;;;;32.63;16.67;;;-5.70;99.90;;;;;;5054936;28;20651;-80
2023/03/06 05:25:30;;;;;;;36.53;15.97;;;-6.40;99.90;;;;;;5020239;28;20685;-80
2023/03/06 05:27:55;;;;;;;24.20;13.63;;;-5.00;99.90;;;;;;5000546;28;20196;-81
2023/03/06 05:30:22;;;;;;;27.20;14.10;;;-6.30;99.90;;;;;;5020114;28;20197;-80
2023/03/06 05:32:48;;;;;;;17.00;9.83;;;-5.60;99.90;;;;;;5055186;28;20187;-81
2023/03/06 05:35:20;;;;;;;26.20;14.53;;;-5.70;99.90;;;;;;5034032;28;20206;-80
2023/03/06 05:37:46;;;;;;;22.93;13.53;;;-6.00;99.90;;;;;;5028013;28;20268;-80
2023/03/06 05:40:13;;;;;;;19.67;11.33;;;-4.70;99.90;;;;;;5054081;28;20191;-80
2023/03/06 05:42:38;;;;;;;31.63;12.73;;;-6.00;99.90;;;;;;5046959;28;20184;-80
2023/03/06 05:45:05;;;;;;;33.73;12.60;;;-5.20;99.90;;;;;;5026315;28;20669;-79
2023/03/06 05:47:31;;;;;;;38.63;16.13;;;-5.90;99.90;;;;;;5040305;28;20190;-81
2023/03/06 05:49:57;;;;;;;12.13;9.17;;;-5.40;99.90;;;;;;5034330;28;20265;-81
2023/03/06 05:52:22;;;;;;;22.60;12.80;;;-5.70;99.90;;;;;;5034283;28;20211;-79
2023/03/06 05:54:53;;;;;;;18.57;9.77;;;-4.70;99.90;;;;;;4999800;28;20219;-80
2023/03/06 05:57:23;;;;;;;15.20;8.43;;;-5.30;99.90;;;;;;5033881;28;20540;-81
2023/03/06 05:59:49;;;;;;;8.70;6.70;;;-5.20;99.90;;;;;;5034054;28;20235;-80
2023/03/06 06:02:16;;;;;;;12.40;8.60;;;-5.00;99.90;;;;;;5034342;28;20185;-80
2023/03/06 06:04:42;;;;;;;14.50;9.47;;;-4.70;99.90;;;;;;5034399;28;20208;-80
2023/03/06 06:07:12;;;;;;;6.00;5.43;;;-4.70;99.90;;;;;;5016039;28;20716;-79
2023/03/06 06:09:38;;;;;;;3.53;3.30;;;-3.90;99.90;;;;;;5034022;28;20185;-80
2023/03/06 06:12:04;;;;;;;5.13;4.70;;;-3.70;99.90;;;;;;5015978;28;20694;-79
2023/03/06 06:14:33;;;;;;;3.17;2.90;;;-4.10;99.90;;;;;;5000275;28;20181;-80
2023/03/06 06:16:58;;;;;;;5.13;3.63;;;-3.20;99.90;;;;;;5033891;28;20183;-80
2023/03/06 06:19:28;;;;;;;4.57;3.93;;;-3.90;99.90;;;;;;5034217;28;20540;-80
2023/03/06 06:21:54;;;;;;;4.27;3.20;;;-3.50;99.90;;;;;;5033394;28;20184;-80
2023/03/06 06:24:22;;;;;;;4.53;4.13;;;-3.70;99.90;;;;;;5016460;28;20183;-79
2023/03/06 06:26:53;;;;;;;3.23;2.27;;;-3.40;99.90;;;;;;5033926;28;20674;-79
2023/03/06 06:29:19;;;;;;;4.23;3.13;;;-2.80;99.90;;;;;;5016350;28;20211;-80
2023/03/06 06:31:45;;;;;;;3.23;2.90;;;-3.50;99.90;;;;;;5016393;28;20210;-80
2023/03/06 06:34:12;;;;;;;2.63;2.43;;;-3.30;99.90;;;;;;5033861;28;20184;-80
2023/03/06 06:36:38;;;;;;;5.67;5.17;;;-3.40;99.90;;;;;;5033838;28;20690;-80
2023/03/06 06:39:05;;;;;;;4.13;3.83;;;-2.40;99.90;;;;;;5016238;28;20219;-80
2023/03/06 06:41:31;;;;;;;6.10;4.33;;;-3.20;99.90;;;;;;5034233;28;20179;-81
2023/03/06 06:43:57;;;;;;;9.53;4.40;;;-3.00;99.90;;;;;;5033559;28;20212;-81
2023/03/06 06:46:23;;;;;;;5.60;4.83;;;-2.90;99.90;;;;;;5015942;28;20223;-83
2023/03/06 06:48:53;;;;;;;4.53;3.70;;;-2.80;99.90;;;;;;5033429;28;20188;-80
2023/03/06 06:51:20;;;;;;;9.37;5.43;;;-1.80;99.90;;;;;;5033534;28;20277;-79
2023/03/06 06:53:46;;;;;;;6.57;4.43;;;-2.70;99.90;;;;;;5033611;28;20229;-80
2023/03/06 06:56:11;;;;;;;6.27;4.37;;;-2.60;99.90;;;;;;5033035;28;20306;-80
2023/03/06 06:58:37;;;;;;;6.57;3.40;;;-4.00;99.90;;;;;;5033519;28;20188;-80
2023/03/06 07:01:08;;;;;;;3.30;3.00;;;-2.30;99.90;;;;;;5015664;28;20633;-80
2023/03/06 07:03:33;;;;;;;8.83;4.73;;;-1.60;99.90;;;;;;5033594;28;20182;-80
2023/03/06 07:05:59;;;;;;;4.50;3.63;;;-1.00;99.90;;;;;;5015874;28;20644;-81
2023/03/06 07:08:25;;;;;;;5.63;4.87;;;-2.20;99.90;;;;;;5015852;28;20199;-80
2023/03/06 07:10:51;;;;;;;16.23;4.50;;;-2.10;99.90;;;;;;4999108;28;20759;-79
2023/03/06 07:13:16;;;;;;;4.33;4.03;;;-2.10;99.90;;;;;;5033235;28;20191;-80
2023/03/06 07:15:42;;;;;;;6.60;5.43;;;-2.10;99.90;;;;;;5033098;28;20305;-80
2023/03/06 07:18:08;;;;;;;8.40;6.60;;;-1.40;99.90;;;;;;5033036;28;20191;-81
2023/03/06 07:20:34;;;;;;;7.93;5.47;;;-2.00;99.90;;;;;;5015644;28;20227;-80
2023/03/06 07:22:59;;;;;;;5.53;5.03;;;-1.90;99.90;;;;;;5033330;28;20537;-80
2023/03/06 07:25:25;;;;;;;8.37;5.40;;;-1.80;99.90;;;;;;5015738;28;20194;-80
2023/03/06 07:27:53;;;;;;;9.17;4.70;;;-1.70;99.90;;;;;;5033201;28;20218;-80
2023/03/06 07:30:19;;;;;;;13.37;3.43;;;-1.60;99.90;;;;;;5032874;28;20234;-80
2023/03/06 07:32:44;;;;;;;7.13;3.97;;;-1.60;99.90;;;;;;5033024;28;20262;-81
2023/03/06 07:35:18;;;;;;;15.33;4.77;;;-0.70;99.90;;;;;;5032717;28;20312;-80
2023/03/06 07:37:43;;;;;;;11.97;4.97;;;-0.90;99.90;;;;;;5032753;28;20233;-80
2023/03/06 07:40:11;;;;;;;9.77;5.37;;;-1.30;99.90;;;;;;5014928;28;20178;-80
2023/03/06 07:42:37;;;;;;;10.07;5.20;;;-1.10;99.90;;;;;;5015668;28;20188;-80
2023/03/06 07:45:03;;;;;;;7.47;5.20;;;-1.10;99.90;;;;;;5032983;28;20263;-80
2023/03/06 07:47:29;;;;;;;10.60;5.53;;;-1.00;99.90;;;;;;5033007;28;20173;-80
2023/03/06 07:49:55;;;;;;;13.80;6.90;;;-0.90;99.90;;;;;;5032753;28;20193;-81
2023/03/06 07:52:22;;;;;;;11.00;5.90;;;-0.80;99.90;;;;;;5032408;28;20633;-81
2023/03/06 07:54:48;;;;;;;6.93;4.93;;;-0.70;99.90;;;;;;5032385;28;20234;-80
2023/03/06 07:57:14;;;;;;;4.90;4.40;;;-0.70;99.90;;;;;;5014429;28;20637;-80
2023/03/06 07:59:40;;;;;;;12.40;6.87;;;-0.60;99.90;;;;;;5032507;28;20183;-80
2023/03/06 08:02:06;;;;;;;7.87;4.70;;;-0.50;99.90;;;;;;5032156;28;20180;-80
2023/03/06 08:04:32;;;;;;;15.30;5.43;;;-0.40;99.90;;;;;;5014697;28;20197;-80
2023/03/06 08:06:59;;;;;;;12.33;3.80;;;-0.40;99.90;;;;;;5032435;28;20263;-80
2023/03/06 08:09:25;;;;;;;6.40;5.13;;;-0.30;99.90;;;;;;4998257;28;20579;-81
2023/03/06 08:11:50;;;;;;;14.87;5.63;;;-0.30;99.90;;;;;;5014657;28;20285;-80
2023/03/06 08:14:16;;;;;;;9.77;5.10;;;-0.20;99.90;;;;;;5032191;28;20177;-80
2023/03/06 08:16:42;;;;;;;8.97;4.97;;;-0.20;99.90;;;;;;5014507;28;20213;-81
2023/03/06 08:19:08;;;;;;;7.97;4.87;;;-0.10;99.90;;;;;;5032453;28;20591;-83
2023/03/06 08:21:34;;;;;;;11.47;5.33;;;-0.20;99.90;;;;;;5032441;28;20181;-81
2023/03/06 08:23:59;;;;;;;8.60;5.10;;;-0.30;99.90;;;;;;5032434;28;20185;-80
2023/03/06 08:26:28;;;;;;;13.63;4.67;;;-0.10;99.90;;;;;;5014243;28;20192;-81
2023/03/06 08:28:56;;;;;;;9.43;4.37;;;0.20;99.90;;;;;;5014486;28;20183;-80
2023/03/06 08:31:32;;;;;;;10.37;3.93;;;0.40;99.90;;;;;;5032365;28;20177;-81
2023/03/06 08:34:02;;;;;;;3.37;3.03;;;0.40;99.90;;;;;;5032474;28;20207;-81
2023/03/06 08:36:28;;;;;;;7.50;3.00;;;0.40;99.90;;;;;;5031911;28;20208;-81
2023/03/06 08:38:54;;;;;;;7.83;4.13;;;0.20;99.90;;;;;;5014535;28;20185;-80
2023/03/06 08:41:20;;;;;;;11.53;4.40;;;0.20;99.90;;;;;;5014265;28;20184;-81
2023/03/06 08:43:46;;;;;;;8.70;4.10;;;0.00;99.90;;;;;;5032090;28;20177;-81
2023/03/06 08:46:12;;;;;;;9.63;4.10;;;-0.20;99.90;;;;;;5032145;28;20657;-81
2023/03/06 08:48:38;;;;;;;9.90;4.17;;;-0.20;99.90;;;;;;5032055;28;20176;-81
2023/03/06 08:51:04;;;;;;;16.67;4.43;;;-0.10;99.90;;;;;;5033966;28;20255;-81
2023/03/06 08:53:30;;;;;;;7.40;4.40;;;0.00;99.90;;;;;;5035348;28;20719;-81
2023/03/06 08:55:56;;;;;;;7.67;4.57;;;0.00;99.90;;;;;;5035306;28;20198;-81
2023/03/06 08:58:21;;;;;;;7.27;3.60;;;-0.10;99.90;;;;;;5035241;28;20656;-81
2023/03/06 09:00:47;;;;;;;10.17;3.43;;;0.10;99.90;;;;;;5017752;28;20188;-81
2023/03/06 09:03:13;;;;;;;16.13;6.03;;;0.30;99.90;;;;;;5035637;28;20641;-81
2023/03/06 09:05:39;;;;;;;8.97;4.70;;;0.30;99.90;;;;;;5001278;28;20194;-81
2023/03/06 09:08:05;;;;;;;3.33;3.03;;;0.60;99.90;;;;;;5035570;28;20264;-81
2023/03/06 09:10:31;;;;;;;5.20;2.50;;;1.10;99.90;;;;;;5035240;28;20188;-81
2023/03/06 09:12:57;;;;;;;5.93;3.47;;;1.20;99.90;;;;;;5000884;28;20687;-81
2023/03/06 09:15:23;;;;;;;6.97;3.27;;;1.50;99.90;;;;;;5017400;28;20215;-81
2023/03/06 09:17:49;;;;;;;18.10;5.47;;;1.10;99.90;;;;;;5035279;28;20185;-80
2023/03/06 09:20:16;;;;;;;10.93;3.53;;;1.20;99.90;;;;;;5035306;28;20176;-81
2023/03/06 09:22:42;;;;;;;9.50;4.50;;;1.30;99.90;;;;;;5034856;28;20541;-81
2023/03/06 09:25:09;;;;;;;6.90;3.97;;;1.10;99.90;;;;;;5034913;28;20187;-80
2023/03/06 09:27:35;;;;;;;10.87;4.07;;;1.10;99.90;;;;;;5034533;28;20188;-81
2023/03/06 09:30:01;;;;;;;10.20;5.90;;;1.10;99.90;;;;;;5034989;28;20271;-80
2023/03/06 09:32:27;;;;;;;6.47;3.37;;;1.20;99.90;;;;;;5016974;28;20590;-80
2023/03/06 09:34:52;;;;;;;5.33;4.00;;;1.10;99.90;;;;;;5017377;28;20212;-79
2023/03/06 09:37:18;;;;;;;6.97;3.57;;;0.90;99.90;;;;;;5017474;28;20276;-80
2023/03/06 09:39:44;;;;;;;7.00;4.23;;;0.90;99.90;;;;;;5034762;28;20212;-80
2023/03/06 09:42:18;;;;;;;7.43;3.73;;;0.80;99.90;;;;;;5034673;28;20239;-80
2023/03/06 09:44:55;;;;;;;5.70;3.73;;;0.80;99.90;;;;;;5034798;28;20180;-79
2023/03/06 09:47:58;;;;;;;10.10;5.57;;;1.00;99.90;;;;;;5034472;28;20176;-81
2023/03/06 09:50:30;;;;;;;10.70;4.17;;;1.00;99.90;;;;;;5034282;28;20248;-81
2023/03/06 09:53:23;;;;;;;12.40;5.43;;;0.90;99.90;;;;;;5017118;28;20604;-80
2023/03/06 09:55:57;;;;;;;6.37;4.63;;;0.90;99.90;;;;;;5016964;28;20219;-80
2023/03/06 09:58:27;;;;;;;9.90;3.90;;;0.90;99.90;;;;;;5034354;28;20178;-81
2023/03/06 10:01:09;;;;;;;10.53;5.10;;;1.20;99.90;;;;;;5033796;28;20196;-81
2023/03/06 10:03:56;;;;;;;6.10;3.50;;;1.40;99.90;;;;;;5034214;28;20198;-80
2023/03/06 10:06:45;;;;;;;8.43;4.20;;;1.40;99.90;;;;;;5034587;28;20658;-80
2023/03/06 10:09:20;;;;;;;4.90;3.67;;;1.50;99.90;;;;;;5034441;28;20169;-80
2023/03/06 10:11:57;;;;;;;7.13;4.10;;;1.70;99.90;;;;;;5034220;28;20230;-80
2023/03/06 10:14:43;;;;;;;11.00;4.87;;;1.70;99.90;;;;;;5016636;28;20182;-80
2023/03/06 10:17:19;;;;;;;6.00;4.37;;;2.10;99.90;;;;;;5016885;28;20593;-80
2023/03/06 10:19:46;;;;;;;6.87;3.83;;;2.20;99.90;;;;;;5033853;28;20221;-80
2023/03/06 10:22:21;;;;;;;7.20;3.57;;;2.10;99.90;;;;;;5034193;28;20207;-80
2023/03/06 10:24:53;;;;;;;10.47;4.23;;;2.20;99.90;;;;;;5033903;28;20203;-81
2023/03/06 10:27:41;;;;;;;13.03;5.70;;;2.00;99.90;;;;;;5033842;28;20319;-80
2023/03/06 10:30:38;;;;;;;3.77;2.17;;;2.40;99.90;;;;;;5034675;28;20227;-80
2023/03/06 10:33:51;;;;;;;7.53;3.23;;;2.20;99.90;;;;;;5016991;28;20278;-81
2023/03/06 10:36:19;;;;;;;5.43;3.07;;;2.50;99.90;;;;;;4999222;28;20223;-80
2023/03/06 10:38:47;;;;;;;13.97;5.27;;;2.80;99.90;;;;;;5033838;28;20640;-80
2023/03/06 10:41:12;;;;;;;5.50;3.53;;;2.50;99.90;;;;;;5033877;28;20187;-80
2023/03/06 10:43:42;;;;;;;5.30;3.47;;;2.30;99.90;;;;;;5033220;28;20179;-80
2023/03/06 10:46:13;;;;;;;6.37;3.07;;;2.20;99.90;;;;;;5033867;28;20182;-80
2023/03/06 10:48:40;;;;;;;8.40;3.63;;;2.20;99.90;;;;;;5034186;28;20172;-80
2023/03/06 10:51:24;;;;;;;3.13;2.77;;;2.20;99.90;;;;;;5033743;28;20179;-80
2023/03/06 10:53:54;;;;;;;9.37;3.97;;;2.20;99.90;;;;;;5033427;28;20227;-80
2023/03/06 10:56:29;;;;;;;3.87;3.20;;;2.30;99.90;;;;;;5034052;28;20232;-80
2023/03/06 10:59:06;;;;;;;6.70;3.30;;;2.20;99.90;;;;;;5033440;28;20186;-80
2023/03/06 11:01:33;;;;;;;9.97;4.60;;;2.10;99.90;;;;;;5015276;28;20176;-82
2023/03/06 11:04:14;;;;;;;3.57;2.97;;;2.00;99.90;;;;;;5033456;28;20223;-81
2023/03/06 11:06:40;;;;;;;9.93;3.17;;;1.90;99.90;;;;;;5033760;28;20228;-81
2023/03/06 11:09:21;;;;;;;5.67;3.63;;;1.80;99.90;;;;;;5034005;28;20184;-81
2023/03/06 11:11:50;;;;;;;5.60;3.03;;;1.70;99.90;;;;;;5033617;28;20338;-81
2023/03/06 11:14:21;;;;;;;3.43;3.00;;;1.60;99.90;;;;;;5015370;28;20203;-81
2023/03/06 11:16:52;;;;;;;3.90;2.53;;;1.40;99.90;;;;;;5033839;28;20244;-81
2023/03/06 11:19:25;;;;;;;6.20;2.73;;;1.20;99.90;;;;;;5016073;28;20215;-81
2023/03/06 11:22:17;;;;;;;8.53;3.10;;;1.00;99.90;;;;;;5033668;28;20173;-81
2023/03/06 11:24:47;;;;;;;3.57;3.20;;;1.00;99.90;;;;;;5034006;28;20183;-82
2023/03/06 11:27:33;;;;;;;5.47;2.83;;;0.90;99.90;;;;;;5016151;28;20189;-81
2023/03/06 11:30:02;;;;;;;6.80;2.93;;;2.20;99.90;;;;;;5015211;28;20571;-81
2023/03/06 11:32:52;;;;;;;2.30;1.70;;;0.80;99.90;;;;;;5033032;28;20180;-81
2023/03/06 11:35:25;;;;;;;5.30;1.87;;;0.80;99.90;;;;;;5032904;28;20204;-80
2023/03/06 11:38:11;;;;;;;7.93;3.70;;;0.70;99.90;;;;;;5015015;28;20180;-81
2023/03/06 11:40:40;;;;;;;3.20;2.73;;;0.70;99.90;;;;;;5033068;28;20206;-81
2023/03/06 11:43:59;;;;;;;3.30;2.47;;;0.70;99.90;;;;;;5033489;28;20184;-81
2023/03/06 11:46:36;;;;;;;2.40;2.00;;;0.60;99.90;;;;;;4984468;28;20188;-81
2023/03/06 11:49:14;;;;;;;2.83;2.07;;;0.80;99.90;;;;;;5015985;28;20176;-80
2023/03/06 11:51:43;;;;;;;3.37;2.50;;;0.90;99.90;;;;;;5032841;28;20172;-82
2023/03/06 11:54:12;;;;;;;5.17;3.67;;;0.80;99.90;;;;;;5015533;28;20258;-81
2023/03/06 11:56:50;;;;;;;3.93;3.47;;;0.90;99.90;;;;;;5032509;28;20614;-84
2023/03/06 11:59:37;;;;;;;2.47;2.23;;;1.00;99.90;;;;;;5032982;28;20180;-81
2023/03/06 12:02:21;;;;;;;4.77;3.37;;;0.70;99.90;;;;;;5014631;28;20721;-80
2023/03/06 12:05:23;;;;;;;8.10;4.23;;;0.50;99.90;;;;;;5032580;28;20219;-81
2023/03/06 12:08:15;;;;;;;14.20;3.13;;;0.60;99.90;;;;;;5032741;28;20217;-81
2023/03/06 12:11:26;;;;;;;16.57;5.60;;;0.70;99.90;;;;;;5032249;28;20185;-82
2023/03/06 12:14:24;;;;;;;3.80;2.50;;;0.70;99.90;;;;;;4954576;28;20217;-81
2023/03/06 12:17:23;;;;;;;9.27;5.03;;;0.60;99.90;;;;;;5021651;28;20220;-80
2023/03/06 12:19:53;;;;;;;10.57;5.93;;;0.70;99.90;;;;;;5015593;28;20651;-81
2023/03/06 12:22:22;;;;;;;12.00;3.23;;;0.90;99.90;;;;;;5032557;28;20261;-81
2023/03/06 12:24:59;;;;;;;12.37;4.90;;;0.80;99.90;;;;;;5015980;28;20185;-82
2023/03/06 12:27:28;;;;;;;11.73;5.13;;;0.80;99.90;;;;;;5036990;28;20644;-81
2023/03/06 12:30:15;;;;;;;9.67;5.00;;;0.80;99.90;;;;;;5036423;28;20187;-81
2023/03/06 12:33:17;;;;;;;9.27;5.13;;;0.80;99.90;;;;;;5037816;28;20245;-80
2023/03/06 12:35:56;;;;;;;6.83;4.93;;;0.90;99.90;;;;;;5018430;28;20712;-82
2023/03/06 12:38:24;;;;;;;5.33;3.93;;;0.90;99.90;;;;;;5036506;28;20633;-81
2023/03/06 12:41:18;;;;;;;11.23;4.37;;;0.90;99.90;;;;;;5018287;28;20176;-81
2023/03/06 12:44:05;;;;;;;7.20;4.43;;;0.80;99.90;;;;;;5037165;28;20199;-84
2023/03/06 12:46:38;;;;;;;11.87;3.60;;;0.80;99.90;;;;;;5018355;28;20628;-80
2023/03/06 12:49:24;;;;;;;6.63;3.17;;;0.70;99.90;;;;;;5036682;28;20172;-81
2023/03/06 12:51:52;;;;;;;6.70;4.10;;;0.70;99.90;;;;;;5036001;28;20182;-81
2023/03/06 12:54:20;;;;;;;6.47;4.20;;;0.80;99.90;;;;;;5001781;28;20691;-81
2023/03/06 12:56:47;;;;;;;4.23;2.30;;;0.80;99.90;;;;;;5017830;28;20552;-85
2023/03/06 12:59:36;;;;;;;10.57;4.37;;;0.80;99.90;;;;;;5035614;28;20189;-81